首页
METAR-TAF:

METAR-TAF

机场 :

Southwest Florida International Airport

麥爾茲堡, 佛罗里达州, 美国

纬度: 26-31-37N, 经度: 081-45-59W, 海拔: 9米

当前天气观测

该预报发布于57分钟前的08:53 UTC
静风
温度 26°C
湿度 89%
气压 1017 hPa
能見度: 16.1公里
天空无云

METAR: KRSW 010853Z AUTO 00000KT 10SM CLR 26/24 A3004 RMK AO2 SLP169 T02610244 56006

时间: 05:50 (09:50 UTC)

预报

该预报发布于4小时和30分钟前的05:20 UTC
预报有效从01日的 06点(UTC)到 02日的 06点(UTC)
风速3节,风向多变
能見度: 10公里
散云层高于25000英尺
从 01日的 1500点(UTC)
风速6节,风向西转西南
能見度: 10公里
散云层高于3000英尺
散云层高于25000英尺
从 01日的 1900点(UTC)
风速8节,风向西转西南
能見度: 10公里
散云层高于3500英尺
散云层高于25000英尺
从 02日的 0200点(UTC)
风速3节,风向多变
能見度: 10公里
少量云层高于2500英尺
散云层高于25000英尺

TAF: KRSW 010520Z 0106/0206 VRB03KT P6SM SCT250 FM011500 24006KT P6SM SCT030 SCT250 FM011900 25008KT P6SM SCT035 SCT250 FM020200 VRB03KT P6SM FEW025 SCT250

超过4000个机场的气象观测和天气预报(METAR&TAF报告)。

可查询的气象台以黄色和红色小点在地图上表示。

将鼠标移到小点上方,可查看气象台名称。

然后点击查看天气观测和预报。

如需切换地图:点击带黑十字的绿色按钮放大地图;点击带横线的绿色按钮缩小地图;或者点击绿色箭头查看邻近地区的地图。


METAR-TAF: